Terminal Aerodrome Forecast
Issued by NWS Hastings, NE

Home | Current Version | Previous Version | Text Only | Print | Product List | Glossary On
Versions: 1 2 3 4 5 6 7 8 9 10 11 12
000
FTUS43 KGID 210520
TAFGRI
TAF
KGRI 210520Z 2106/2206 VRB06KT P6SM BKN200
     FM210900 34008KT P6SM VCSH BKN100
     FM211400 35019G26KT P6SM VCSH FEW050 SCT110
     FM212300 35011KT P6SM FEW250=

USA.gov is the U.S. government's official web portal to all federal, state and local government web resources and services.